createdAt,value
2017-12-05T00:02:08.602Z,83.10
2017-12-05T00:04:36.076Z,83.10
2017-12-05T00:07:03.568Z,83.20
2017-12-05T00:09:31.048Z,83.20
2017-12-05T00:11:58.554Z,83.20
2017-12-05T00:31:44.076Z,83.10
2017-12-05T00:34:11.556Z,83.00
2017-12-05T00:36:39.040Z,83.10
2017-12-05T00:39:07.264Z,83.00
2017-12-05T00:41:34.759Z,83.00
2017-12-05T00:44:02.229Z,82.80
2017-12-05T00:46:29.722Z,83.00
2017-12-05T00:48:57.210Z,83.00
2017-12-05T00:51:24.701Z,82.90
2017-12-05T00:53:52.167Z,83.10
2017-12-05T01:13:37.584Z,83.00
2017-12-05T01:16:05.083Z,83.10
2017-12-05T01:18:33.323Z,83.40
2017-12-05T01:21:02.384Z,83.00
2017-12-05T01:23:29.863Z,83.00
2017-12-05T01:25:57.335Z,83.00
2017-12-05T01:28:24.842Z,83.00
2017-12-05T01:30:52.315Z,83.00
2017-12-05T01:33:20.596Z,83.10
2017-12-05T01:35:48.829Z,83.00
2017-12-05T01:38:17.067Z,83.00
2017-12-05T01:40:45.299Z,82.80
2017-12-05T01:43:13.542Z,83.70
2017-12-05T01:45:41.013Z,82.80
2017-12-05T01:48:08.489Z,83.00
2017-12-05T01:50:35.968Z,82.90
2017-12-05T01:53:03.443Z,82.90
2017-12-05T01:55:30.960Z,83.00
2017-12-05T02:15:18.086Z,82.80
2017-12-05T02:17:45.604Z,82.90
2017-12-05T02:20:13.090Z,82.90
2017-12-05T02:22:41.338Z,82.90
2017-12-05T02:25:08.810Z,82.90
2017-12-05T02:27:36.311Z,83.20
2017-12-05T02:30:03.785Z,83.30
2017-12-05T02:32:32.049Z,82.50
2017-12-05T02:34:59.523Z,83.10
2017-12-05T02:37:27.782Z,83.00
2017-12-05T02:39:56.030Z,83.00
2017-12-05T02:42:23.510Z,83.00
2017-12-05T03:02:10.307Z,82.80
2017-12-05T03:04:38.568Z,83.00
2017-12-05T03:07:06.040Z,82.90
2017-12-05T03:09:34.277Z,82.80
2017-12-05T03:12:01.747Z,82.80
2017-12-05T03:14:30.008Z,82.80
2017-12-05T03:34:15.535Z,82.90
2017-12-05T03:36:43.006Z,82.90
2017-12-05T03:39:10.494Z,82.90
2017-12-05T03:41:37.982Z,83.00
2017-12-05T03:44:06.223Z,83.00
2017-12-05T03:46:33.688Z,83.00
2017-12-05T03:49:01.163Z,83.20
2017-12-05T03:51:28.634Z,83.00
2017-12-05T03:53:56.173Z,83.00
2017-12-05T03:56:23.637Z,83.00
2017-12-05T03:58:51.897Z,83.20
2017-12-05T04:01:19.392Z,83.20
2017-12-05T04:21:03.906Z,83.30
2017-12-05T04:23:31.394Z,83.10
2017-12-05T04:25:58.883Z,83.10
2017-12-05T04:28:26.372Z,83.10
2017-12-05T04:30:53.846Z,83.00
2017-12-05T04:33:22.102Z,83.00
2017-12-05T04:35:49.586Z,82.90
2017-12-05T04:38:17.058Z,83.20
2017-12-05T04:40:44.547Z,83.20
2017-12-05T04:43:12.786Z,83.10
2017-12-05T04:45:41.041Z,83.00
2017-12-05T04:48:08.525Z,83.00
2017-12-05T04:50:35.995Z,83.00
2017-12-05T04:53:03.484Z,83.10
2017-12-05T04:55:30.967Z,83.10
2017-12-05T04:57:59.203Z,83.20
2017-12-05T05:00:26.707Z,83.20
2017-12-05T05:02:54.951Z,83.10
2017-12-05T05:05:22.432Z,83.00
2017-12-05T05:07:49.889Z,83.10
2017-12-05T05:10:17.364Z,83.10
2017-12-05T05:12:44.843Z,82.90
2017-12-05T05:15:13.079Z,83.00
2017-12-05T05:17:41.315Z,83.00
2017-12-05T05:20:08.794Z,83.00
2017-12-05T05:22:36.278Z,82.90
2017-12-05T05:25:03.773Z,83.00
2017-12-05T05:27:31.267Z,83.00
2017-12-05T05:29:58.725Z,83.10
2017-12-05T05:32:26.225Z,83.00
2017-12-05T05:34:53.693Z,83.00
2017-12-05T05:37:21.181Z,83.10
2017-12-05T05:39:48.659Z,83.00
2017-12-05T05:49:06.741Z,82.80
2017-12-05T05:51:34.211Z,82.90
2017-12-05T05:54:02.485Z,83.00
2017-12-05T05:56:29.951Z,83.00
2017-12-05T05:58:58.187Z,82.80
2017-12-05T06:01:25.668Z,82.80
2017-12-05T06:03:53.148Z,82.90
2017-12-05T06:06:20.641Z,82.80
2017-12-05T06:08:48.127Z,82.90
2017-12-05T06:11:16.364Z,83.00
2017-12-05T06:13:44.619Z,82.80
2017-12-05T06:16:12.086Z,82.80
2017-12-05T06:35:57.813Z,82.90
2017-12-05T06:38:25.292Z,82.70
2017-12-05T06:40:52.770Z,82.80
2017-12-05T06:43:20.262Z,82.90
2017-12-05T06:45:47.759Z,82.90
2017-12-05T06:48:15.228Z,82.90
2017-12-05T06:50:42.703Z,82.90
2017-12-05T06:53:10.179Z,82.90
2017-12-05T06:55:38.428Z,83.00
2017-12-05T06:58:05.914Z,82.80
2017-12-05T07:00:34.170Z,82.90
2017-12-05T07:03:01.646Z,82.90
2017-12-05T07:05:29.117Z,83.00
2017-12-05T07:10:47.130Z,83.10
2017-12-05T07:13:15.386Z,83.00
2017-12-05T07:15:42.849Z,83.00
2017-12-05T07:18:10.330Z,82.90
2017-12-05T07:20:38.575Z,83.20
2017-12-05T07:23:06.841Z,83.20
2017-12-05T07:25:34.351Z,83.20
2017-12-05T07:28:02.603Z,83.00
2017-12-05T07:30:30.080Z,83.00
2017-12-05T07:32:57.559Z,83.00
2017-12-05T07:35:25.807Z,83.00
2017-12-05T07:37:53.296Z,83.00
2017-12-05T07:40:22.322Z,83.00
2017-12-05T07:42:49.803Z,83.00
2017-12-05T07:45:17.305Z,83.00
2017-12-05T07:47:44.773Z,83.00
2017-12-05T07:50:12.245Z,83.00
2017-12-05T07:52:40.491Z,83.20
2017-12-05T07:55:07.966Z,83.20
2017-12-05T07:57:35.440Z,83.00
2017-12-05T08:00:02.942Z,83.20
2017-12-05T08:02:30.432Z,83.20
2017-12-05T08:04:57.903Z,83.10
2017-12-05T08:07:25.388Z,83.00
2017-12-05T08:09:52.870Z,83.10
2017-12-05T08:12:21.110Z,83.20
2017-12-05T08:14:48.583Z,83.20
2017-12-05T08:17:16.060Z,83.00
2017-12-05T08:19:43.753Z,83.30
2017-12-05T08:22:12.005Z,83.00
2017-12-05T08:24:39.493Z,83.00
2017-12-05T08:27:06.982Z,83.10
2017-12-05T08:29:34.459Z,83.10
2017-12-05T08:32:01.937Z,83.20
2017-12-05T08:34:30.188Z,83.20
2017-12-05T08:36:57.649Z,83.20
2017-12-05T08:39:25.136Z,83.20
2017-12-05T08:41:53.369Z,83.20
2017-12-05T08:44:20.881Z,83.20
2017-12-05T08:46:48.347Z,83.00
2017-12-05T08:49:16.601Z,83.20
2017-12-05T08:51:44.078Z,83.10
2017-12-05T08:54:11.548Z,83.10
2017-12-05T08:56:39.796Z,82.80
2017-12-05T08:59:07.292Z,82.80
2017-12-05T09:01:35.553Z,83.00
2017-12-05T09:04:03.029Z,83.00
2017-12-05T09:06:31.283Z,82.70
2017-12-05T09:08:58.752Z,82.70
2017-12-05T09:11:26.239Z,83.00
2017-12-05T09:13:54.475Z,83.70
2017-12-05T09:16:21.946Z,83.00
2017-12-05T09:18:49.423Z,83.00
2017-12-05T09:21:16.916Z,83.00
2017-12-05T09:23:45.910Z,83.00
2017-12-05T09:26:14.165Z,82.80
2017-12-05T09:28:41.636Z,82.80
2017-12-05T09:31:09.110Z,83.40
2017-12-05T09:33:37.351Z,83.00
2017-12-05T09:36:05.596Z,82.80
2017-12-05T09:38:33.062Z,82.80
2017-12-05T09:41:00.542Z,82.90
2017-12-05T09:43:28.777Z,82.90
2017-12-05T09:45:56.261Z,82.80
2017-12-05T09:48:23.730Z,82.60
2017-12-05T09:50:51.223Z,82.70
2017-12-05T09:53:18.706Z,83.10
2017-12-05T09:55:46.194Z,82.60
2017-12-05T09:58:14.446Z,82.60
2017-12-05T10:00:41.934Z,82.60
2017-12-05T10:03:09.397Z,82.60
2017-12-05T10:05:37.648Z,82.60
2017-12-05T10:25:23.205Z,83.20
2017-12-05T10:27:50.720Z,82.80
2017-12-05T10:30:18.962Z,82.80
2017-12-05T10:32:47.855Z,82.80
2017-12-05T10:35:16.101Z,82.50
2017-12-05T10:37:43.593Z,82.60
2017-12-05T10:40:11.062Z,82.70
2017-12-05T10:42:39.321Z,82.40
2017-12-05T10:45:06.811Z,82.50
2017-12-05T10:47:34.302Z,82.30
2017-12-05T10:50:02.563Z,82.80
2017-12-05T10:52:30.052Z,82.80
2017-12-05T10:54:58.601Z,82.60
2017-12-05T10:57:26.066Z,82.60
2017-12-05T10:59:53.544Z,82.10
2017-12-05T11:02:21.019Z,82.50
2017-12-05T11:06:43.098Z,83.00
2017-12-05T11:09:10.579Z,82.90
2017-12-05T11:11:38.048Z,83.30
2017-12-05T11:14:05.538Z,83.50
2017-12-05T11:16:33.008Z,83.90
2017-12-05T11:19:00.491Z,83.70
2017-12-05T11:21:27.990Z,83.90
2017-12-05T11:23:55.484Z,83.80
2017-12-05T11:26:22.981Z,84.00
2017-12-05T11:28:50.490Z,84.00
2017-12-05T11:31:18.733Z,84.10
2017-12-05T11:33:46.212Z,84.10
2017-12-05T11:36:14.462Z,83.70
2017-12-05T11:38:41.949Z,83.70
2017-12-05T11:41:09.421Z,83.80
2017-12-05T11:43:36.917Z,83.90
2017-12-05T11:46:04.398Z,83.70
2017-12-05T11:48:31.878Z,83.60
2017-12-05T11:50:59.353Z,83.70
2017-12-05T11:53:26.842Z,83.60
2017-12-05T11:55:54.311Z,83.60
2017-12-05T11:58:21.811Z,83.50
2017-12-05T12:00:49.277Z,83.50
2017-12-05T12:03:16.779Z,83.40
2017-12-05T12:05:45.019Z,83.30
2017-12-05T12:08:12.498Z,83.30
2017-12-05T12:10:39.980Z,83.10
2017-12-05T12:13:07.463Z,83.30
2017-12-05T12:15:34.955Z,83.50
2017-12-05T12:18:02.442Z,83.40
2017-12-05T12:20:29.942Z,83.50
2017-12-05T12:22:58.216Z,83.00
2017-12-05T12:25:26.469Z,83.20
2017-12-05T12:27:53.939Z,83.00
2017-12-05T12:30:21.418Z,82.90
2017-12-05T12:32:48.890Z,83.10
2017-12-05T12:35:17.151Z,83.30
2017-12-05T12:37:44.653Z,83.30
2017-12-05T12:40:12.135Z,83.30
2017-12-05T12:42:40.388Z,83.40
2017-12-05T12:45:08.658Z,83.20
2017-12-05T12:47:36.897Z,83.10
2017-12-05T12:50:04.378Z,83.50
2017-12-05T12:52:31.855Z,83.20
2017-12-05T12:55:00.102Z,83.00
2017-12-05T12:57:27.568Z,83.00
2017-12-05T12:59:55.056Z,83.00
2017-12-05T13:02:22.549Z,83.10
2017-12-05T13:04:50.030Z,83.00
2017-12-05T13:07:17.515Z,82.90
2017-12-05T13:09:45.003Z,83.00
2017-12-05T13:12:13.251Z,83.10
2017-12-05T13:14:40.722Z,83.10
2017-12-05T13:17:08.198Z,83.10
2017-12-05T13:19:35.672Z,83.20
2017-12-05T13:22:03.149Z,83.20
2017-12-05T13:24:31.424Z,83.40
2017-12-05T13:26:58.893Z,83.40
2017-12-05T13:29:27.133Z,84.00
2017-12-05T13:31:54.609Z,83.30
2017-12-05T13:34:22.090Z,83.10
2017-12-05T13:36:49.571Z,83.20
2017-12-05T13:39:17.129Z,83.90
2017-12-05T13:41:45.361Z,83.00
2017-12-05T13:44:12.835Z,83.00
2017-12-05T13:46:40.310Z,82.90
2017-12-05T13:49:07.781Z,82.60
2017-12-05T13:51:35.271Z,82.70
2017-12-05T13:54:02.735Z,82.80
2017-12-05T13:56:30.235Z,82.90
2017-12-05T13:58:57.706Z,82.70
2017-12-05T14:01:25.186Z,83.00
2017-12-05T14:03:52.668Z,82.80
2017-12-05T14:06:20.917Z,82.00
2017-12-05T14:08:48.404Z,82.00
2017-12-05T14:11:15.898Z,81.90
2017-12-05T14:13:43.379Z,82.00
2017-12-05T14:16:10.867Z,82.10
2017-12-05T14:18:38.332Z,82.10
2017-12-05T14:21:05.811Z,81.90
2017-12-05T14:23:33.289Z,81.90
2017-12-05T14:26:01.538Z,82.00
2017-12-05T14:28:29.009Z,81.90
2017-12-05T14:30:56.498Z,81.90
2017-12-05T14:33:24.740Z,82.10
2017-12-05T14:35:52.224Z,82.10
2017-12-05T14:38:19.714Z,81.90
2017-12-05T14:40:47.200Z,82.10
2017-12-05T14:43:15.444Z,82.30
2017-12-05T14:45:43.702Z,82.30
2017-12-05T14:48:11.188Z,82.10
2017-12-05T14:50:39.446Z,82.30
2017-12-05T14:53:06.941Z,82.30
2017-12-05T14:55:34.416Z,82.30
2017-12-05T14:58:01.898Z,82.30
2017-12-05T15:00:30.143Z,82.10
2017-12-05T15:02:57.632Z,82.10
2017-12-05T15:05:25.109Z,82.10
2017-12-05T15:07:52.602Z,82.30
2017-12-05T15:10:20.084Z,82.30
2017-12-05T15:12:48.345Z,82.50
2017-12-05T15:15:15.817Z,82.30
2017-12-05T15:17:43.315Z,82.60
2017-12-05T15:20:10.810Z,82.50
2017-12-05T15:22:38.290Z,82.60
2017-12-05T15:25:05.807Z,82.60
2017-12-05T15:27:33.257Z,82.60
2017-12-05T15:30:00.749Z,82.60
2017-12-05T15:32:28.230Z,82.60
2017-12-05T15:34:55.759Z,82.50
2017-12-05T15:37:23.230Z,82.60
2017-12-05T15:39:50.716Z,82.60
2017-12-05T15:42:18.201Z,82.60
2017-12-05T15:44:45.678Z,82.60
2017-12-05T15:47:13.171Z,82.60
2017-12-05T15:49:40.639Z,82.70
2017-12-05T15:52:08.123Z,82.60
2017-12-05T15:54:35.592Z,82.60
2017-12-05T15:57:03.082Z,82.60
2017-12-05T15:59:30.613Z,82.70
2017-12-05T16:01:58.094Z,82.70
2017-12-05T16:04:25.571Z,82.70
2017-12-05T16:06:53.052Z,82.70
2017-12-05T16:09:21.294Z,82.80
2017-12-05T16:11:48.780Z,82.80
2017-12-05T16:14:16.272Z,82.80
2017-12-05T16:16:43.747Z,82.80
2017-12-05T16:19:11.239Z,82.80
2017-12-05T16:21:38.716Z,82.80
2017-12-05T16:24:06.203Z,82.80
2017-12-05T16:26:33.689Z,82.60
2017-12-05T16:29:01.929Z,82.60
2017-12-05T16:31:29.399Z,82.80
2017-12-05T16:33:56.904Z,82.60
2017-12-05T16:36:24.372Z,82.50
2017-12-05T16:38:51.850Z,82.60
2017-12-05T16:41:19.322Z,82.60
2017-12-05T16:43:46.807Z,82.50
2017-12-05T16:46:14.286Z,82.50
2017-12-05T16:48:41.760Z,82.40
2017-12-05T16:51:10.002Z,82.60
2017-12-05T16:53:37.471Z,82.50
2017-12-05T16:56:04.950Z,82.80
2017-12-05T16:58:32.431Z,83.00
2017-12-05T17:01:00.677Z,82.90
2017-12-05T17:03:28.157Z,82.90
2017-12-05T17:05:55.634Z,82.80
2017-12-05T17:08:23.874Z,82.80
2017-12-05T17:10:51.369Z,82.80
2017-12-05T17:13:19.615Z,82.70
2017-12-05T17:15:47.090Z,82.70
2017-12-05T17:18:14.569Z,82.80
2017-12-05T17:20:42.047Z,83.00
2017-12-05T17:23:10.288Z,82.90
2017-12-05T17:25:37.787Z,82.80
2017-12-05T17:28:06.043Z,82.70
2017-12-05T17:30:33.522Z,82.70
2017-12-05T17:33:01.000Z,82.60
2017-12-05T17:35:29.254Z,82.30
2017-12-05T17:37:56.747Z,82.30
2017-12-05T17:40:24.220Z,82.20
2017-12-05T18:00:11.424Z,81.60
2017-12-05T18:02:38.894Z,81.30
2017-12-05T18:05:06.389Z,81.10
2017-12-05T18:07:34.624Z,81.00
2017-12-05T18:10:02.110Z,81.00
2017-12-05T18:12:29.588Z,81.00
2017-12-05T18:14:57.839Z,81.20
2017-12-05T18:34:43.649Z,80.80
2017-12-05T18:37:11.905Z,80.90
2017-12-05T18:39:39.386Z,80.90
2017-12-05T18:42:07.668Z,80.90
2017-12-05T18:44:35.143Z,80.90
2017-12-05T18:47:02.626Z,80.90
2017-12-05T18:49:30.108Z,80.80
2017-12-05T18:51:57.597Z,81.00
2017-12-05T18:54:25.858Z,80.80
2017-12-05T18:56:53.345Z,80.80
2017-12-05T18:59:20.822Z,80.80
2017-12-05T19:01:48.290Z,81.00
2017-12-05T19:04:15.788Z,81.00
2017-12-05T19:06:43.259Z,81.20
2017-12-05T19:09:10.745Z,81.10
2017-12-05T19:11:39.005Z,81.10
2017-12-05T19:14:06.476Z,81.10
2017-12-05T19:16:33.960Z,81.10
2017-12-05T19:19:02.199Z,81.30
2017-12-05T19:21:29.682Z,81.20
2017-12-05T19:23:57.151Z,81.30
2017-12-05T19:43:43.992Z,81.50
2017-12-05T19:46:11.474Z,81.50
2017-12-05T19:48:39.733Z,81.50
2017-12-05T19:51:07.228Z,81.50
2017-12-05T19:53:35.456Z,81.60
2017-12-05T19:56:02.926Z,81.50
2017-12-05T19:58:30.399Z,81.40
2017-12-05T20:00:57.878Z,81.50
2017-12-05T20:03:25.373Z,81.60
2017-12-05T20:05:52.843Z,81.60
2017-12-05T20:08:20.329Z,81.60
2017-12-05T20:10:47.814Z,81.50
2017-12-05T20:13:15.286Z,81.60
2017-12-05T20:15:42.751Z,81.70
2017-12-05T20:18:10.226Z,81.60
2017-12-05T20:20:37.699Z,81.70
2017-12-05T20:23:05.958Z,81.70
2017-12-05T20:25:33.426Z,81.60
2017-12-05T20:28:00.906Z,81.60
2017-12-05T20:30:29.138Z,81.80
2017-12-05T20:32:56.613Z,81.70
2017-12-05T20:35:24.084Z,81.70
2017-12-05T20:37:51.557Z,81.70
2017-12-05T20:40:19.032Z,81.80
2017-12-05T20:42:47.270Z,81.80
2017-12-05T20:45:14.748Z,81.80
2017-12-05T21:04:59.673Z,81.80
2017-12-05T21:07:27.165Z,81.70
2017-12-05T21:09:54.644Z,81.80
2017-12-05T21:29:39.946Z,82.10
2017-12-05T21:32:07.384Z,82.20
2017-12-05T21:51:53.003Z,82.50
2017-12-05T21:54:20.500Z,82.40
2017-12-05T21:56:48.746Z,82.50
2017-12-05T21:59:16.236Z,82.40
2017-12-05T22:01:43.705Z,82.50
2017-12-05T22:04:11.958Z,82.50
2017-12-05T22:06:39.437Z,82.50
2017-12-05T22:09:07.696Z,82.50
2017-12-05T22:11:35.166Z,82.40
2017-12-05T22:14:02.641Z,82.50
2017-12-05T22:16:30.107Z,82.40
2017-12-05T22:36:15.585Z,82.50
2017-12-05T22:38:43.838Z,82.60
2017-12-05T22:58:28.941Z,82.50
2017-12-05T23:00:56.422Z,82.50
2017-12-05T23:03:23.888Z,82.50
2017-12-05T23:05:51.380Z,82.50
2017-12-05T23:08:18.859Z,82.50
2017-12-05T23:10:47.110Z,82.50
2017-12-05T23:13:15.341Z,82.60
2017-12-05T23:15:42.823Z,82.60
2017-12-05T23:18:10.301Z,82.60
2017-12-05T23:20:37.804Z,82.70
2017-12-05T23:23:05.271Z,82.70
2017-12-05T23:25:32.763Z,82.70
2017-12-05T23:28:00.246Z,82.60
2017-12-05T23:30:27.729Z,83.20
2017-12-05T23:32:55.956Z,82.60
2017-12-05T23:35:23.447Z,82.60
2017-12-05T23:37:50.929Z,82.50
2017-12-05T23:40:19.173Z,82.50
2017-12-05T23:42:46.648Z,82.40
2017-12-05T23:45:14.130Z,82.60
